createdAt,value
2023-01-13T00:03:40.319Z,8.20
2023-01-13T00:06:08.510Z,7.60
2023-01-13T00:08:35.955Z,8.20
2023-01-13T00:13:29.621Z,9.73
2023-01-13T00:16:01.403Z,10.95
2023-01-13T00:18:28.947Z,10.45
2023-01-13T00:21:04.264Z,10.95
2023-01-13T00:23:33.306Z,10.70
2023-01-13T00:26:02.572Z,11.02
2023-01-13T00:28:29.549Z,11.52
2023-01-13T00:30:58.536Z,11.07
2023-01-13T00:33:25.901Z,11.60
2023-01-13T00:35:59.848Z,11.40
2023-01-13T00:38:27.450Z,10.38
2023-01-13T00:41:10.248Z,11.10
2023-01-13T00:43:38.292Z,10.70
2023-01-13T00:46:08.098Z,10.82
2023-01-13T00:48:35.868Z,10.63
2023-01-13T00:51:05.577Z,9.35
2023-01-13T00:53:40.860Z,10.15
2023-01-13T00:56:09.966Z,10.07
2023-01-13T00:58:37.146Z,11.10
2023-01-13T01:01:07.140Z,9.85
2023-01-13T01:03:35.320Z,10.60
2023-01-13T01:06:18.240Z,10.77
2023-01-13T01:08:45.603Z,10.73
2023-01-13T01:13:44.838Z,9.45
2023-01-13T01:16:14.792Z,9.38
2023-01-13T01:18:44.547Z,10.68
2023-01-13T01:21:12.621Z,9.40
2023-01-13T01:23:40.412Z,10.15
2023-01-13T01:26:25.098Z,9.48
2023-01-13T01:28:52.732Z,10.80
2023-01-13T01:31:21.443Z,9.73
2023-01-13T01:33:48.978Z,9.88
2023-01-13T01:36:18.678Z,10.30
2023-01-13T01:38:46.373Z,9.55
2023-01-13T01:41:19.255Z,9.85
2023-01-13T01:44:04.245Z,10.18
2023-01-13T01:46:40.690Z,9.85
2023-01-13T01:49:11.182Z,10.00
2023-01-13T01:51:45.807Z,10.00
2023-01-13T01:54:19.710Z,9.10
2023-01-13T01:56:47.232Z,9.02
2023-01-13T01:59:14.655Z,9.95
2023-01-13T02:01:43.176Z,9.70
2023-01-13T02:04:15.515Z,9.98
2023-01-13T02:06:44.443Z,9.13
2023-01-13T02:09:12.472Z,9.07
2023-01-13T02:11:58.529Z,9.80
2023-01-13T02:14:28.846Z,8.73
2023-01-13T02:17:11.243Z,9.60
2023-01-13T02:19:44.194Z,9.20
2023-01-13T02:22:41.172Z,9.13
2023-01-13T02:25:43.027Z,8.38
2023-01-13T02:28:24.840Z,8.95
2023-01-13T02:31:22.182Z,9.20
2023-01-13T02:34:02.023Z,8.52
2023-01-13T02:36:39.657Z,9.15
2023-01-13T02:39:15.329Z,9.32
2023-01-13T02:42:34.397Z,7.97
2023-01-13T02:45:18.857Z,7.75
2023-01-13T02:47:50.305Z,7.35
2023-01-13T02:50:25.091Z,7.03
2023-01-13T02:52:58.901Z,7.95
2023-01-13T02:55:31.608Z,7.35
2023-01-13T02:58:01.180Z,8.52
2023-01-13T03:00:28.713Z,8.10
2023-01-13T03:02:55.428Z,8.43
2023-01-13T03:05:22.674Z,9.02
2023-01-13T03:08:17.718Z,8.93
2023-01-13T03:11:08.350Z,9.13
2023-01-13T03:13:50.308Z,8.82
2023-01-13T03:16:39.587Z,8.65
2023-01-13T03:19:09.240Z,9.05
2023-01-13T03:21:51.738Z,9.07
2023-01-13T03:24:21.695Z,8.32
2023-01-13T03:26:58.858Z,7.85
2023-01-13T03:29:36.233Z,6.83
2023-01-13T03:32:27.812Z,8.48
2023-01-13T03:35:15.157Z,8.57
2023-01-13T03:37:46.892Z,9.10
2023-01-13T03:40:18.752Z,8.43
2023-01-13T03:43:11.278Z,8.52
2023-01-13T03:45:41.168Z,8.43
2023-01-13T03:48:13.486Z,8.55
2023-01-13T03:50:45.977Z,9.07
2023-01-13T03:53:27.999Z,9.10
2023-01-13T03:56:02.710Z,8.13
2023-01-13T03:58:39.893Z,9.05
2023-01-13T04:01:15.947Z,5.38
2023-01-13T04:04:07.368Z,8.00
2023-01-13T04:06:47.319Z,7.43
2023-01-13T04:09:36.623Z,7.85
2023-01-13T04:12:52.202Z,7.93
2023-01-13T04:15:23.055Z,8.68
2023-01-13T04:17:51.294Z,8.75
2023-01-13T04:20:18.055Z,8.30
2023-01-13T04:22:44.715Z,6.03
2023-01-13T04:25:11.779Z,8.60
2023-01-13T04:27:38.503Z,9.05
2023-01-13T04:30:06.674Z,8.55
2023-01-13T04:32:33.387Z,7.82
2023-01-13T04:35:00.092Z,7.43
2023-01-13T04:37:26.809Z,5.68
2023-01-13T04:39:53.727Z,8.05
2023-01-13T04:42:20.406Z,7.70
2023-01-13T04:44:47.054Z,5.15
2023-01-13T04:47:13.736Z,4.95
2023-01-13T04:49:40.436Z,8.15
2023-01-13T04:52:07.249Z,8.43
2023-01-13T04:54:33.994Z,8.90
2023-01-13T04:57:00.762Z,8.38
2023-01-13T04:59:27.482Z,8.88
2023-01-13T05:01:54.230Z,9.60
2023-01-13T05:04:21.051Z,9.27
2023-01-13T05:06:47.779Z,8.63
2023-01-13T05:09:15.656Z,6.95
2023-01-13T05:12:01.156Z,8.38
2023-01-13T05:14:46.544Z,10.00
2023-01-13T05:17:20.114Z,8.27
2023-01-13T05:19:47.529Z,8.80
2023-01-13T05:25:18.466Z,8.63
2023-01-13T05:27:45.218Z,9.23
2023-01-13T05:30:12.293Z,8.07
2023-01-13T05:32:39.058Z,7.68
2023-01-13T05:35:06.054Z,8.90
2023-01-13T05:37:32.924Z,7.97
2023-01-13T05:40:18.476Z,8.85
2023-01-13T05:43:04.028Z,9.50
2023-01-13T05:45:31.749Z,11.13
2023-01-13T05:47:58.865Z,11.45
2023-01-13T05:50:25.613Z,10.82
2023-01-13T05:52:52.296Z,7.82
2023-01-13T05:55:18.970Z,9.10
2023-01-13T05:57:45.667Z,7.28
2023-01-13T06:00:12.843Z,11.68
2023-01-13T06:02:39.530Z,10.57
2023-01-13T06:05:06.495Z,7.57
2023-01-13T06:07:33.181Z,10.80
2023-01-13T06:09:59.935Z,11.50
2023-01-13T06:12:26.660Z,8.65
2023-01-13T06:14:53.317Z,8.57
2023-01-13T06:17:20.039Z,10.30
2023-01-13T06:19:46.807Z,8.60
2023-01-13T06:22:18.192Z,11.75
2023-01-13T06:24:50.442Z,11.20
2023-01-13T06:27:17.870Z,11.70
2023-01-13T06:29:44.711Z,11.52
2023-01-13T06:32:19.347Z,13.98
2023-01-13T06:34:51.365Z,12.40
2023-01-13T06:37:21.679Z,11.15
2023-01-13T06:39:49.222Z,11.25
2023-01-13T06:42:34.536Z,11.68
2023-01-13T06:45:01.466Z,11.65
2023-01-13T06:47:28.233Z,10.82
2023-01-13T06:49:54.974Z,12.23
2023-01-13T06:52:21.856Z,12.25
2023-01-13T06:54:48.665Z,12.00
2023-01-13T06:57:15.419Z,12.68
2023-01-13T06:59:42.070Z,10.50
2023-01-13T07:02:08.820Z,11.13
2023-01-13T07:04:35.611Z,11.45
2023-01-13T07:07:02.381Z,11.13
2023-01-13T07:09:29.047Z,11.60
2023-01-13T07:11:55.776Z,10.27
2023-01-13T07:14:41.259Z,8.02
2023-01-13T07:17:07.928Z,9.30
2023-01-13T07:19:34.668Z,8.80
2023-01-13T07:22:01.528Z,9.13
2023-01-13T07:24:28.207Z,10.77
2023-01-13T07:26:55.070Z,7.53
2023-01-13T07:29:21.768Z,11.10
2023-01-13T07:31:50.247Z,11.82
2023-01-13T07:34:17.085Z,10.95
2023-01-13T07:36:43.813Z,11.60
2023-01-13T07:39:10.645Z,10.07
2023-01-13T07:41:56.132Z,12.48
2023-01-13T07:44:22.841Z,12.73
2023-01-13T07:46:49.586Z,11.65
2023-01-13T07:49:16.256Z,8.60
2023-01-13T07:51:42.961Z,11.25
2023-01-13T07:54:09.745Z,11.38
2023-01-13T07:56:36.435Z,10.65
2023-01-13T07:59:03.835Z,12.95
2023-01-13T08:01:31.887Z,11.18
2023-01-13T08:04:00.205Z,10.30
2023-01-13T08:06:27.122Z,11.57
2023-01-13T08:08:54.969Z,10.82
2023-01-13T08:11:23.580Z,10.32
2023-01-13T08:13:50.628Z,11.85
2023-01-13T08:16:17.491Z,11.25
2023-01-13T08:18:44.365Z,10.57
2023-01-13T08:21:13.889Z,9.77
2023-01-13T08:23:44.651Z,8.98
2023-01-13T08:26:14.592Z,9.32
2023-01-13T08:28:41.397Z,10.75
2023-01-13T08:31:11.529Z,10.23
2023-01-13T08:33:38.466Z,10.32
2023-01-13T08:36:07.296Z,10.30
2023-01-13T08:38:34.972Z,10.93
2023-01-13T08:41:07.705Z,10.27
2023-01-13T08:43:34.376Z,9.60
2023-01-13T08:46:04.335Z,11.43
2023-01-13T08:48:31.629Z,10.32
2023-01-13T08:53:29.387Z,10.25
2023-01-13T08:55:56.839Z,10.13
2023-01-13T08:58:23.611Z,10.98
2023-01-13T09:00:50.500Z,10.77
2023-01-13T09:03:17.878Z,10.93
2023-01-13T09:08:11.330Z,8.93
2023-01-13T09:10:40.282Z,10.05
2023-01-13T09:13:11.780Z,8.80
2023-01-13T09:15:39.882Z,9.07
2023-01-13T09:18:06.614Z,10.93
2023-01-13T09:20:33.440Z,6.25
2023-01-13T09:23:00.417Z,8.48
2023-01-13T09:25:27.192Z,7.38
2023-01-13T09:27:53.949Z,8.57
2023-01-13T09:30:20.708Z,9.07
2023-01-13T09:32:47.401Z,6.05
2023-01-13T09:35:14.129Z,7.28
2023-01-13T09:37:41.465Z,8.38
2023-01-13T09:43:25.036Z,8.30
2023-01-13T09:46:01.455Z,7.85
2023-01-13T09:48:51.791Z,8.32
2023-01-13T09:51:31.740Z,8.65
2023-01-13T09:54:07.154Z,9.40
2023-01-13T09:56:33.864Z,7.90
2023-01-13T09:59:00.714Z,8.32
2023-01-13T10:01:41.591Z,7.30
2023-01-13T10:04:13.627Z,7.85
2023-01-13T10:06:44.163Z,8.40
2023-01-13T10:09:18.736Z,8.10
2023-01-13T10:12:08.009Z,9.27
2023-01-13T10:14:37.670Z,8.05
2023-01-13T10:17:07.299Z,8.75
2023-01-13T10:23:19.421Z,8.73
2023-01-13T10:26:06.351Z,9.65
2023-01-13T10:28:33.075Z,7.95
2023-01-13T10:31:00.332Z,6.68
2023-01-13T10:33:30.884Z,7.90
2023-01-13T10:36:05.091Z,13.93
2023-01-13T10:38:40.127Z,9.25
2023-01-13T10:41:20.039Z,7.10
2023-01-13T10:43:52.810Z,7.43
2023-01-13T10:46:20.583Z,6.55
2023-01-13T10:48:58.504Z,7.72
2023-01-13T10:51:28.200Z,8.63
2023-01-13T10:54:13.986Z,8.77
2023-01-13T10:56:43.186Z,10.20
2023-01-13T10:59:24.585Z,9.00
2023-01-13T11:02:13.160Z,6.78
2023-01-13T11:04:56.024Z,6.63
2023-01-13T11:07:57.978Z,6.95
2023-01-13T11:10:27.398Z,8.02
2023-01-13T11:12:57.169Z,9.55
2023-01-13T11:15:33.838Z,9.48
2023-01-13T11:18:17.823Z,8.25
2023-01-13T11:20:48.929Z,8.50
2023-01-13T11:23:15.583Z,8.77
2023-01-13T11:25:46.771Z,9.07
2023-01-13T11:28:20.869Z,8.25
2023-01-13T11:31:00.625Z,9.20
2023-01-13T11:33:55.350Z,10.38
2023-01-13T11:36:28.744Z,8.73
2023-01-13T11:39:01.769Z,8.82
2023-01-13T11:41:43.497Z,8.95
2023-01-13T11:44:26.152Z,7.32
2023-01-13T11:46:53.944Z,12.32
2023-01-13T11:49:39.038Z,8.77
2023-01-13T11:52:24.477Z,10.02
2023-01-13T11:55:22.753Z,10.18
2023-01-13T11:58:02.911Z,7.88
2023-01-13T12:01:04.924Z,6.50
2023-01-13T12:03:45.097Z,9.80
2023-01-13T12:06:24.081Z,14.10
2023-01-13T12:09:17.887Z,10.10
2023-01-13T12:12:22.905Z,8.88
2023-01-13T12:15:02.865Z,6.97
2023-01-13T12:18:13.330Z,5.68
2023-01-13T12:20:49.782Z,6.63
2023-01-13T12:23:39.135Z,6.32
2023-01-13T12:26:10.910Z,5.43
2023-01-13T12:28:44.614Z,6.82
2023-01-13T12:31:13.259Z,7.38
2023-01-13T12:34:04.302Z,8.00
2023-01-13T12:36:54.007Z,6.63
2023-01-13T12:39:50.317Z,6.40
2023-01-13T12:42:49.397Z,7.18
2023-01-13T12:45:17.801Z,6.60
2023-01-13T12:47:48.930Z,6.20
2023-01-13T12:50:24.890Z,7.35
2023-01-13T12:52:59.345Z,7.60
2023-01-13T12:55:34.289Z,7.13
2023-01-13T12:58:06.781Z,6.80
2023-01-13T13:00:42.344Z,7.05
2023-01-13T13:03:12.220Z,6.25
2023-01-13T13:05:48.786Z,7.25
2023-01-13T13:08:32.234Z,7.50
2023-01-13T13:11:32.434Z,8.05
2023-01-13T13:14:00.921Z,9.20
2023-01-13T13:16:29.004Z,8.55
2023-01-13T13:19:17.423Z,9.57
2023-01-13T13:22:07.067Z,7.93
2023-01-13T13:24:33.771Z,7.93
2023-01-13T13:27:18.635Z,7.63
2023-01-13T13:30:04.778Z,7.28
2023-01-13T13:32:44.390Z,8.35
2023-01-13T13:35:30.928Z,9.65
2023-01-13T13:38:34.868Z,10.13
2023-01-13T13:41:36.660Z,8.35
2023-01-13T13:44:50.334Z,7.90
2023-01-13T13:47:17.307Z,8.40
2023-01-13T13:49:52.493Z,7.70
2023-01-13T13:52:30.462Z,7.50
2023-01-13T13:55:08.361Z,7.57
2023-01-13T14:00:27.049Z,7.38
2023-01-13T14:02:59.114Z,6.90
2023-01-13T14:05:34.010Z,7.28
2023-01-13T14:08:03.888Z,7.57
2023-01-13T14:10:37.111Z,7.07
2023-01-13T14:13:22.202Z,7.25
2023-01-13T14:16:03.742Z,6.75
2023-01-13T14:18:47.598Z,7.32
2023-01-13T14:21:25.891Z,7.35
2023-01-13T14:23:58.988Z,7.25
2023-01-13T14:26:28.565Z,7.53
2023-01-13T14:28:57.092Z,9.00
2023-01-13T14:31:24.601Z,9.60
2023-01-13T14:33:55.026Z,9.70
2023-01-13T14:36:24.569Z,12.23
2023-01-13T14:39:14.869Z,12.32
2023-01-13T14:41:41.537Z,12.57
2023-01-13T14:44:28.042Z,11.77
2023-01-13T14:46:57.363Z,14.68
2023-01-13T14:49:36.043Z,13.43
2023-01-13T14:52:24.129Z,10.80
2023-01-13T14:54:52.163Z,9.50
2023-01-13T14:57:33.038Z,8.10
2023-01-13T15:00:05.339Z,7.95
2023-01-13T15:02:34.618Z,8.65
2023-01-13T15:05:19.483Z,9.00
2023-01-13T15:07:50.451Z,9.48
2023-01-13T15:10:19.186Z,7.80
2023-01-13T15:12:46.459Z,7.65
2023-01-13T15:15:25.057Z,9.18
2023-01-13T15:17:52.681Z,8.93
2023-01-13T15:20:22.337Z,9.52
2023-01-13T15:22:49.824Z,9.95
2023-01-13T15:25:16.567Z,10.32
2023-01-13T15:27:50.090Z,14.10
2023-01-13T15:30:20.118Z,13.38
2023-01-13T15:32:47.206Z,16.23
2023-01-13T15:35:17.306Z,16.10
2023-01-13T15:37:45.750Z,43.33
2023-01-13T15:40:18.789Z,19.52
2023-01-13T15:43:03.979Z,17.02
2023-01-13T15:45:51.062Z,18.42
2023-01-13T15:48:20.439Z,13.90
2023-01-13T15:50:47.499Z,15.35
2023-01-13T15:53:14.979Z,14.65
2023-01-13T15:55:44.759Z,16.55
2023-01-13T15:58:13.461Z,14.45
2023-01-13T16:00:41.143Z,10.15
2023-01-13T16:03:13.105Z,11.30
2023-01-13T16:05:43.962Z,15.20
2023-01-13T16:08:16.948Z,13.63
2023-01-13T16:10:44.940Z,12.23
2023-01-13T16:13:12.595Z,10.05
2023-01-13T16:15:44.502Z,10.20
2023-01-13T16:18:17.481Z,9.88
2023-01-13T16:20:44.764Z,13.30
2023-01-13T16:25:39.269Z,15.30
2023-01-13T16:30:36.940Z,18.42
2023-01-13T16:33:03.940Z,14.70
2023-01-13T16:35:35.234Z,9.73
2023-01-13T16:38:01.986Z,9.63
2023-01-13T16:40:31.428Z,10.30
2023-01-13T16:42:58.571Z,9.07
2023-01-13T16:45:25.447Z,9.63
2023-01-13T16:47:52.500Z,26.13
2023-01-13T16:50:28.705Z,37.83
2023-01-13T16:52:55.403Z,31.70
2023-01-13T16:55:22.107Z,11.77
2023-01-13T16:57:48.770Z,8.60
2023-01-13T17:00:16.187Z,7.25
2023-01-13T17:02:43.102Z,10.07
2023-01-13T17:05:12.352Z,8.30
2023-01-13T17:07:44.166Z,12.20
2023-01-13T17:10:16.353Z,10.32
2023-01-13T17:12:43.040Z,7.32
2023-01-13T17:15:14.480Z,9.23
2023-01-13T17:17:43.169Z,9.90
2023-01-13T17:20:14.510Z,8.70
2023-01-13T17:22:42.462Z,11.95
2023-01-13T17:25:13.113Z,13.57
2023-01-13T17:27:41.303Z,14.98
2023-01-13T17:30:09.566Z,9.18
2023-01-13T17:32:36.318Z,10.18
2023-01-13T17:35:03.092Z,10.50
2023-01-13T17:37:30.073Z,10.63
2023-01-13T17:39:56.763Z,13.63
2023-01-13T17:42:24.987Z,22.98
2023-01-13T17:44:51.850Z,18.98
2023-01-13T17:47:18.530Z,20.38
2023-01-13T17:49:45.657Z,17.67
2023-01-13T17:52:12.481Z,26.80
2023-01-13T17:54:39.875Z,23.67
2023-01-13T17:57:06.530Z,18.90
2023-01-13T17:59:33.206Z,17.13
2023-01-13T18:01:59.983Z,14.73
2023-01-13T18:04:30.841Z,11.25
2023-01-13T18:06:57.519Z,13.25
2023-01-13T18:09:24.354Z,6.75
2023-01-13T18:11:51.225Z,4.47
2023-01-13T18:14:18.833Z,4.05
2023-01-13T18:16:45.725Z,6.03
2023-01-13T18:19:41.443Z,7.10
2023-01-13T18:22:32.075Z,6.47
2023-01-13T18:25:17.483Z,6.20
2023-01-13T18:27:44.364Z,7.25
2023-01-13T18:30:12.569Z,8.02
2023-01-13T18:32:39.404Z,9.65
2023-01-13T18:35:10.078Z,10.45
2023-01-13T18:37:39.955Z,13.23
2023-01-13T18:40:09.222Z,13.27
2023-01-13T18:42:52.000Z,18.02
2023-01-13T18:45:24.426Z,11.23
2023-01-13T18:47:51.988Z,11.85
2023-01-13T18:50:18.890Z,7.20
2023-01-13T18:52:46.228Z,9.18
2023-01-13T18:57:40.396Z,10.15
2023-01-13T19:02:39.264Z,4.65
2023-01-13T19:05:06.507Z,6.03
2023-01-13T19:07:35.566Z,5.65
2023-01-13T19:10:04.303Z,5.40
2023-01-13T19:12:31.593Z,3.17
2023-01-13T19:17:27.098Z,2.88
2023-01-13T19:19:55.771Z,4.07
2023-01-13T19:22:32.588Z,4.78
2023-01-13T19:25:00.035Z,5.32
2023-01-13T19:27:27.741Z,5.95
2023-01-13T19:29:57.988Z,5.97
2023-01-13T19:32:25.289Z,4.82
2023-01-13T19:38:30.060Z,5.45
2023-01-13T19:41:27.281Z,6.80
2023-01-13T19:44:14.724Z,6.35
2023-01-13T19:46:41.535Z,4.00
2023-01-13T19:49:08.427Z,5.55
2023-01-13T19:51:35.113Z,5.35
2023-01-13T19:54:01.859Z,4.78
2023-01-13T19:56:29.432Z,4.40
2023-01-13T19:58:56.712Z,6.72
2023-01-13T20:04:02.794Z,6.22
2023-01-13T20:06:31.688Z,7.90
2023-01-13T20:08:59.317Z,6.82
2023-01-13T20:11:31.491Z,7.13
2023-01-13T20:13:59.227Z,7.28
2023-01-13T20:16:27.625Z,8.43
2023-01-13T20:18:54.928Z,10.75
2023-01-13T20:23:52.949Z,12.13
2023-01-13T20:26:20.757Z,10.02
2023-01-13T20:28:47.995Z,6.35
2023-01-13T20:33:42.980Z,3.03
2023-01-13T20:36:26.610Z,1.80
2023-01-13T20:38:58.711Z,3.55
2023-01-13T20:41:44.641Z,2.90
2023-01-13T20:44:12.451Z,2.00
2023-01-13T20:46:43.507Z,2.70
2023-01-13T20:49:11.888Z,2.15
2023-01-13T20:51:38.663Z,0.93
2023-01-13T20:54:05.512Z,0.75
2023-01-13T20:56:32.807Z,0.80
2023-01-13T20:58:59.536Z,0.60
2023-01-13T21:01:26.795Z,1.00
2023-01-13T21:06:24.190Z,0.70
2023-01-13T21:08:54.139Z,1.58
2023-01-13T21:11:41.421Z,2.03
2023-01-13T21:14:38.576Z,0.85
2023-01-13T21:17:05.989Z,1.90
2023-01-13T21:19:32.816Z,1.50
2023-01-13T21:21:59.510Z,1.08
2023-01-13T21:24:26.488Z,0.90
2023-01-13T21:26:59.272Z,0.80
2023-01-13T21:29:25.962Z,0.57
2023-01-13T21:31:54.116Z,0.50
2023-01-13T21:34:20.877Z,1.70
2023-01-13T21:36:47.579Z,1.30
2023-01-13T21:39:15.945Z,1.90
2023-01-13T21:42:01.742Z,2.22
2023-01-13T21:44:47.254Z,2.00
2023-01-13T21:47:34.934Z,2.72
2023-01-13T21:50:02.081Z,2.87
2023-01-13T21:52:28.775Z,3.80
2023-01-13T21:55:13.960Z,3.08
2023-01-13T21:57:44.158Z,3.50
2023-01-13T22:00:11.611Z,2.85
2023-01-13T22:02:38.377Z,3.10
2023-01-13T22:05:07.725Z,3.75
2023-01-13T22:07:36.278Z,2.67
2023-01-13T22:10:04.552Z,2.42
2023-01-13T22:12:31.372Z,2.53
2023-01-13T22:14:58.487Z,3.05
2023-01-13T22:17:27.591Z,3.42
2023-01-13T22:19:57.243Z,2.92
2023-01-13T22:31:53.203Z,0.70
2023-01-13T22:34:19.953Z,0.43
2023-01-13T22:36:46.627Z,0.22
2023-01-13T22:39:13.592Z,0.30
2023-01-13T22:41:40.282Z,0.38
2023-01-13T22:44:06.935Z,0.22
2023-01-13T22:46:33.630Z,0.20
2023-01-13T22:49:00.327Z,0.20
2023-01-13T22:51:27.269Z,0.10
2023-01-13T22:53:54.623Z,0.13
2023-01-13T22:58:56.250Z,0.10
2023-01-13T23:01:24.284Z,0.10
2023-01-13T23:03:51.092Z,0.10
2023-01-13T23:06:19.146Z,0.50
2023-01-13T23:08:46.770Z,0.32
2023-01-13T23:11:15.907Z,0.60
2023-01-13T23:13:43.868Z,0.30
2023-01-13T23:16:13.753Z,0.25
2023-01-13T23:18:47.947Z,0.40
2023-01-13T23:21:19.779Z,0.20
2023-01-13T23:23:46.906Z,0.20
2023-01-13T23:26:13.790Z,0.38
2023-01-13T23:28:40.486Z,0.40
2023-01-13T23:31:11.537Z,0.43
2023-01-13T23:33:38.235Z,0.70
2023-01-13T23:36:06.739Z,0.60
2023-01-13T23:38:33.483Z,0.60
2023-01-13T23:41:00.234Z,0.70
2023-01-13T23:43:27.269Z,0.65
2023-01-13T23:46:02.432Z,0.60
2023-01-13T23:48:29.416Z,0.50
2023-01-13T23:51:01.249Z,1.02
2023-01-13T23:53:39.948Z,0.88
2023-01-13T23:56:10.370Z,0.82
2023-01-13T23:58:37.149Z,0.95
